sensor_id;sensor_type;location;lat;lon;timestamp;temperature;humidity
73277;DHT22;61501;43.316;5.372;2023-02-28T00:00:49;8.30;96.90
73277;DHT22;61501;43.316;5.372;2023-02-28T00:03:14;8.40;97.10
73277;DHT22;61501;43.316;5.372;2023-02-28T00:05:40;8.40;96.70
73277;DHT22;61501;43.316;5.372;2023-02-28T00:08:07;8.40;96.90
73277;DHT22;61501;43.316;5.372;2023-02-28T00:10:45;8.40;96.90
73277;DHT22;61501;43.316;5.372;2023-02-28T00:13:11;8.40;96.80
73277;DHT22;61501;43.316;5.372;2023-02-28T00:15:36;8.40;96.90
73277;DHT22;61501;43.316;5.372;2023-02-28T00:18:03;8.40;96.60
73277;DHT22;61501;43.316;5.372;2023-02-28T00:20:28;8.50;96.40
73277;DHT22;61501;43.316;5.372;2023-02-28T00:22:55;8.60;96.20
73277;DHT22;61501;43.316;5.372;2023-02-28T00:25:24;8.50;96.40
73277;DHT22;61501;43.316;5.372;2023-02-28T00:27:50;8.40;96.50
73277;DHT22;61501;43.316;5.372;2023-02-28T00:30:18;8.50;96.30
73277;DHT22;61501;43.316;5.372;2023-02-28T00:32:44;8.50;96.60
73277;DHT22;61501;43.316;5.372;2023-02-28T00:35:11;8.50;96.40
73277;DHT22;61501;43.316;5.372;2023-02-28T00:37:37;8.50;97.30
73277;DHT22;61501;43.316;5.372;2023-02-28T00:40:03;8.40;97.00
73277;DHT22;61501;43.316;5.372;2023-02-28T00:42:33;8.40;98.90
73277;DHT22;61501;43.316;5.372;2023-02-28T00:44:59;8.20;99.90
73277;DHT22;61501;43.316;5.372;2023-02-28T00:47:25;8.00;99.90
73277;DHT22;61501;43.316;5.372;2023-02-28T00:49:51;7.90;99.90
73277;DHT22;61501;43.316;5.372;2023-02-28T00:52:16;7.80;99.90
73277;DHT22;61501;43.316;5.372;2023-02-28T00:54:42;7.80;99.90
73277;DHT22;61501;43.316;5.372;2023-02-28T00:57:08;7.70;99.90
73277;DHT22;61501;43.316;5.372;2023-02-28T00:59:33;7.70;99.90
73277;DHT22;61501;43.316;5.372;2023-02-28T01:01:59;7.70;99.90
73277;DHT22;61501;43.316;5.372;2023-02-28T01:04:25;7.70;99.90
73277;DHT22;61501;43.316;5.372;2023-02-28T01:06:50;7.70;99.90
73277;DHT22;61501;43.316;5.372;2023-02-28T01:09:16;7.60;99.90
73277;DHT22;61501;43.316;5.372;2023-02-28T01:11:42;7.60;99.90
73277;DHT22;61501;43.316;5.372;2023-02-28T01:14:15;7.60;99.90
73277;DHT22;61501;43.316;5.372;2023-02-28T01:16:41;7.50;99.90
73277;DHT22;61501;43.316;5.372;2023-02-28T01:19:07;7.50;99.90
73277;DHT22;61501;43.316;5.372;2023-02-28T01:21:33;7.50;99.90
73277;DHT22;61501;43.316;5.372;2023-02-28T01:24:01;7.50;99.90
73277;DHT22;61501;43.316;5.372;2023-02-28T01:26:27;7.40;99.90
73277;DHT22;61501;43.316;5.372;2023-02-28T01:28:53;7.40;99.90
73277;DHT22;61501;43.316;5.372;2023-02-28T01:31:19;7.40;99.90
73277;DHT22;61501;43.316;5.372;2023-02-28T01:33:46;7.40;99.90
73277;DHT22;61501;43.316;5.372;2023-02-28T01:36:19;7.40;99.90
73277;DHT22;61501;43.316;5.372;2023-02-28T01:38:46;7.40;99.90
73277;DHT22;61501;43.316;5.372;2023-02-28T01:41:32;7.40;99.90
73277;DHT22;61501;43.316;5.372;2023-02-28T01:44:53;7.50;99.90
73277;DHT22;61501;43.316;5.372;2023-02-28T01:46:52;7.50;99.90
73277;DHT22;61501;43.316;5.372;2023-02-28T01:49:18;7.50;99.90
73277;DHT22;61501;43.316;5.372;2023-02-28T01:52:05;7.50;99.90
73277;DHT22;61501;43.316;5.372;2023-02-28T01:54:34;7.50;99.90
73277;DHT22;61501;43.316;5.372;2023-02-28T01:59:37;7.50;99.90
73277;DHT22;61501;43.316;5.372;2023-02-28T02:02:06;7.50;99.90
73277;DHT22;61501;43.316;5.372;2023-02-28T02:04:40;7.50;99.90
73277;DHT22;61501;43.316;5.372;2023-02-28T02:07:07;7.50;99.90
73277;DHT22;61501;43.316;5.372;2023-02-28T02:09:33;7.50;99.90
73277;DHT22;61501;43.316;5.372;2023-02-28T02:12:02;7.50;99.90
73277;DHT22;61501;43.316;5.372;2023-02-28T02:17:21;7.50;99.90
73277;DHT22;61501;43.316;5.372;2023-02-28T02:23:02;7.50;99.90
73277;DHT22;61501;43.316;5.372;2023-02-28T02:28:56;7.60;99.90
73277;DHT22;61501;43.316;5.372;2023-02-28T02:36:33;7.60;99.90
73277;DHT22;61501;43.316;5.372;2023-02-28T02:39:36;7.60;99.90
73277;DHT22;61501;43.316;5.372;2023-02-28T02:42:13;7.60;99.90
73277;DHT22;61501;43.316;5.372;2023-02-28T02:47:10;7.50;99.90
73277;DHT22;61501;43.316;5.372;2023-02-28T02:49:38;7.60;99.90
73277;DHT22;61501;43.316;5.372;2023-02-28T02:52:08;7.60;99.90
73277;DHT22;61501;43.316;5.372;2023-02-28T02:54:38;7.60;99.90
73277;DHT22;61501;43.316;5.372;2023-02-28T02:57:15;7.60;99.90
73277;DHT22;61501;43.316;5.372;2023-02-28T02:59:43;7.60;99.90
73277;DHT22;61501;43.316;5.372;2023-02-28T03:02:12;7.60;99.90
73277;DHT22;61501;43.316;5.372;2023-02-28T03:04:45;7.60;99.90
73277;DHT22;61501;43.316;5.372;2023-02-28T03:07:11;7.60;99.90
73277;DHT22;61501;43.316;5.372;2023-02-28T03:09:37;7.50;99.90
73277;DHT22;61501;43.316;5.372;2023-02-28T03:12:04;7.50;99.90
73277;DHT22;61501;43.316;5.372;2023-02-28T03:25:33;7.50;99.90
73277;DHT22;61501;43.316;5.372;2023-02-28T03:28:04;7.50;99.90
73277;DHT22;61501;43.316;5.372;2023-02-28T03:33:36;7.50;99.90
73277;DHT22;61501;43.316;5.372;2023-02-28T03:36:30;7.40;99.90
73277;DHT22;61501;43.316;5.372;2023-02-28T03:39:05;7.50;99.90
73277;DHT22;61501;43.316;5.372;2023-02-28T03:42:11;7.50;99.90
73277;DHT22;61501;43.316;5.372;2023-02-28T03:44:42;7.50;99.90
73277;DHT22;61501;43.316;5.372;2023-02-28T03:47:12;7.50;99.90
73277;DHT22;61501;43.316;5.372;2023-02-28T03:50:05;7.50;99.90
73277;DHT22;61501;43.316;5.372;2023-02-28T03:52:36;7.50;99.90
73277;DHT22;61501;43.316;5.372;2023-02-28T03:55:08;7.50;99.90
73277;DHT22;61501;43.316;5.372;2023-02-28T03:58:01;7.50;99.90
73277;DHT22;61501;43.316;5.372;2023-02-28T04:00:34;7.60;99.90
73277;DHT22;61501;43.316;5.372;2023-02-28T04:03:02;7.60;99.90
73277;DHT22;61501;43.316;5.372;2023-02-28T04:05:29;7.60;99.90
73277;DHT22;61501;43.316;5.372;2023-02-28T04:08:06;7.60;99.90
73277;DHT22;61501;43.316;5.372;2023-02-28T04:10:32;7.70;99.90
73277;DHT22;61501;43.316;5.372;2023-02-28T04:12:58;7.70;99.90
73277;DHT22;61501;43.316;5.372;2023-02-28T04:15:24;7.60;99.90
73277;DHT22;61501;43.316;5.372;2023-02-28T04:17:50;7.70;99.90
73277;DHT22;61501;43.316;5.372;2023-02-28T04:20:17;7.70;99.90
73277;DHT22;61501;43.316;5.372;2023-02-28T04:22:42;7.70;99.90
73277;DHT22;61501;43.316;5.372;2023-02-28T04:25:08;7.70;99.90
73277;DHT22;61501;43.316;5.372;2023-02-28T04:27:34;7.70;99.90
73277;DHT22;61501;43.316;5.372;2023-02-28T04:30:00;7.70;99.90
73277;DHT22;61501;43.316;5.372;2023-02-28T04:32:25;7.70;99.90
73277;DHT22;61501;43.316;5.372;2023-02-28T04:34:51;7.70;99.90
73277;DHT22;61501;43.316;5.372;2023-02-28T04:37:17;7.70;99.90
73277;DHT22;61501;43.316;5.372;2023-02-28T04:39:43;7.70;99.90
73277;DHT22;61501;43.316;5.372;2023-02-28T04:42:09;7.70;99.90
73277;DHT22;61501;43.316;5.372;2023-02-28T04:44:35;7.60;99.90
73277;DHT22;61501;43.316;5.372;2023-02-28T04:47:00;7.50;99.90
73277;DHT22;61501;43.316;5.372;2023-02-28T04:49:26;7.40;99.90
73277;DHT22;61501;43.316;5.372;2023-02-28T04:51:52;7.20;99.90
73277;DHT22;61501;43.316;5.372;2023-02-28T04:54:18;7.20;99.90
73277;DHT22;61501;43.316;5.372;2023-02-28T04:56:44;7.10;99.90
73277;DHT22;61501;43.316;5.372;2023-02-28T04:59:09;7.00;99.90
73277;DHT22;61501;43.316;5.372;2023-02-28T05:01:35;7.00;99.90
73277;DHT22;61501;43.316;5.372;2023-02-28T05:04:02;6.90;99.90
73277;DHT22;61501;43.316;5.372;2023-02-28T05:06:30;6.90;99.90
73277;DHT22;61501;43.316;5.372;2023-02-28T05:08:57;6.80;99.90
73277;DHT22;61501;43.316;5.372;2023-02-28T05:11:31;6.80;99.90
73277;DHT22;61501;43.316;5.372;2023-02-28T05:14:05;6.80;99.90
73277;DHT22;61501;43.316;5.372;2023-02-28T05:16:34;6.80;99.90
73277;DHT22;61501;43.316;5.372;2023-02-28T05:19:00;6.80;99.90
73277;DHT22;61501;43.316;5.372;2023-02-28T05:21:31;6.80;99.90
73277;DHT22;61501;43.316;5.372;2023-02-28T05:24:02;6.80;99.90
73277;DHT22;61501;43.316;5.372;2023-02-28T05:26:29;6.70;99.90
73277;DHT22;61501;43.316;5.372;2023-02-28T05:28:55;6.70;99.90
73277;DHT22;61501;43.316;5.372;2023-02-28T05:31:21;6.70;99.90
73277;DHT22;61501;43.316;5.372;2023-02-28T05:33:47;6.60;99.90
73277;DHT22;61501;43.316;5.372;2023-02-28T05:36:13;6.70;99.90
73277;DHT22;61501;43.316;5.372;2023-02-28T05:38:39;6.60;99.90
73277;DHT22;61501;43.316;5.372;2023-02-28T05:41:09;6.60;99.90
73277;DHT22;61501;43.316;5.372;2023-02-28T05:43:35;6.60;99.90
73277;DHT22;61501;43.316;5.372;2023-02-28T05:46:08;6.60;99.90
73277;DHT22;61501;43.316;5.372;2023-02-28T05:48:36;6.50;99.90
73277;DHT22;61501;43.316;5.372;2023-02-28T05:51:34;6.50;99.90
73277;DHT22;61501;43.316;5.372;2023-02-28T05:54:01;6.50;99.90
73277;DHT22;61501;43.316;5.372;2023-02-28T05:56:27;6.60;99.90
73277;DHT22;61501;43.316;5.372;2023-02-28T05:58:53;6.50;99.90
73277;DHT22;61501;43.316;5.372;2023-02-28T06:01:34;6.50;99.90
73277;DHT22;61501;43.316;5.372;2023-02-28T06:04:02;6.50;99.90
73277;DHT22;61501;43.316;5.372;2023-02-28T06:06:28;6.50;99.90
73277;DHT22;61501;43.316;5.372;2023-02-28T06:08:55;6.50;99.90
73277;DHT22;61501;43.316;5.372;2023-02-28T06:11:21;6.50;99.90
73277;DHT22;61501;43.316;5.372;2023-02-28T06:13:57;6.50;99.90
73277;DHT22;61501;43.316;5.372;2023-02-28T06:16:25;6.50;99.90
73277;DHT22;61501;43.316;5.372;2023-02-28T06:18:51;6.60;99.90
73277;DHT22;61501;43.316;5.372;2023-02-28T06:21:18;6.60;99.90
73277;DHT22;61501;43.316;5.372;2023-02-28T06:23:44;6.60;99.90
73277;DHT22;61501;43.316;5.372;2023-02-28T06:26:10;6.70;99.90
73277;DHT22;61501;43.316;5.372;2023-02-28T06:28:36;6.70;99.90
73277;DHT22;61501;43.316;5.372;2023-02-28T06:31:10;6.60;99.90
73277;DHT22;61501;43.316;5.372;2023-02-28T06:33:37;6.60;99.90
73277;DHT22;61501;43.316;5.372;2023-02-28T06:36:03;6.60;99.90
73277;DHT22;61501;43.316;5.372;2023-02-28T06:38:29;6.60;99.90
73277;DHT22;61501;43.316;5.372;2023-02-28T06:40:56;6.60;99.90
73277;DHT22;61501;43.316;5.372;2023-02-28T06:43:22;6.60;99.90
73277;DHT22;61501;43.316;5.372;2023-02-28T06:45:48;6.60;99.90
73277;DHT22;61501;43.316;5.372;2023-02-28T06:48:14;6.50;99.90
73277;DHT22;61501;43.316;5.372;2023-02-28T06:50:40;6.50;99.90
73277;DHT22;61501;43.316;5.372;2023-02-28T06:53:05;6.40;99.90
73277;DHT22;61501;43.316;5.372;2023-02-28T06:55:31;6.40;99.90
73277;DHT22;61501;43.316;5.372;2023-02-28T06:57:57;6.40;99.90
73277;DHT22;61501;43.316;5.372;2023-02-28T07:00:23;6.40;99.90
73277;DHT22;61501;43.316;5.372;2023-02-28T07:02:50;6.40;99.90
73277;DHT22;61501;43.316;5.372;2023-02-28T07:05:16;6.40;99.90
73277;DHT22;61501;43.316;5.372;2023-02-28T07:07:41;6.40;99.90
73277;DHT22;61501;43.316;5.372;2023-02-28T07:10:12;6.40;99.90
73277;DHT22;61501;43.316;5.372;2023-02-28T07:12:40;6.40;99.90
73277;DHT22;61501;43.316;5.372;2023-02-28T07:15:06;6.30;99.90
73277;DHT22;61501;43.316;5.372;2023-02-28T07:17:32;6.40;99.90
73277;DHT22;61501;43.316;5.372;2023-02-28T07:19:57;6.30;99.90
73277;DHT22;61501;43.316;5.372;2023-02-28T07:22:23;6.30;99.90
73277;DHT22;61501;43.316;5.372;2023-02-28T07:24:50;6.40;99.90
73277;DHT22;61501;43.316;5.372;2023-02-28T07:27:15;6.40;99.90
73277;DHT22;61501;43.316;5.372;2023-02-28T07:29:49;6.50;99.90
73277;DHT22;61501;43.316;5.372;2023-02-28T07:32:15;6.50;99.90
73277;DHT22;61501;43.316;5.372;2023-02-28T07:34:41;6.60;99.90
73277;DHT22;61501;43.316;5.372;2023-02-28T07:37:06;6.70;99.90
73277;DHT22;61501;43.316;5.372;2023-02-28T07:39:32;6.60;99.90
73277;DHT22;61501;43.316;5.372;2023-02-28T07:41:58;6.60;99.90
73277;DHT22;61501;43.316;5.372;2023-02-28T07:44:25;6.60;99.90
73277;DHT22;61501;43.316;5.372;2023-02-28T07:46:51;6.60;99.90
73277;DHT22;61501;43.316;5.372;2023-02-28T07:49:18;6.60;99.90
73277;DHT22;61501;43.316;5.372;2023-02-28T07:51:43;6.60;99.90
73277;DHT22;61501;43.316;5.372;2023-02-28T07:54:09;6.60;99.90
73277;DHT22;61501;43.316;5.372;2023-02-28T07:56:35;6.50;99.90
73277;DHT22;61501;43.316;5.372;2023-02-28T07:59:01;6.40;99.90
73277;DHT22;61501;43.316;5.372;2023-02-28T08:01:27;6.30;99.90
73277;DHT22;61501;43.316;5.372;2023-02-28T08:03:53;6.20;99.90
73277;DHT22;61501;43.316;5.372;2023-02-28T08:06:22;6.20;99.90
73277;DHT22;61501;43.316;5.372;2023-02-28T08:08:49;6.10;99.90
73277;DHT22;61501;43.316;5.372;2023-02-28T08:11:15;6.10;99.90
73277;DHT22;61501;43.316;5.372;2023-02-28T08:13:41;6.10;99.90
73277;DHT22;61501;43.316;5.372;2023-02-28T08:16:09;6.10;99.90
73277;DHT22;61501;43.316;5.372;2023-02-28T08:18:35;6.10;99.90
73277;DHT22;61501;43.316;5.372;2023-02-28T08:21:09;6.10;99.90
73277;DHT22;61501;43.316;5.372;2023-02-28T08:23:35;6.10;99.90
73277;DHT22;61501;43.316;5.372;2023-02-28T08:26:01;6.10;99.90
73277;DHT22;61501;43.316;5.372;2023-02-28T08:28:27;6.20;99.90
73277;DHT22;61501;43.316;5.372;2023-02-28T08:30:53;6.10;99.90
73277;DHT22;61501;43.316;5.372;2023-02-28T08:33:19;6.10;99.90
73277;DHT22;61501;43.316;5.372;2023-02-28T08:35:44;6.20;99.90
73277;DHT22;61501;43.316;5.372;2023-02-28T08:38:10;6.20;99.90
73277;DHT22;61501;43.316;5.372;2023-02-28T08:40:36;6.20;99.90
73277;DHT22;61501;43.316;5.372;2023-02-28T08:43:01;6.20;99.90
73277;DHT22;61501;43.316;5.372;2023-02-28T08:45:27;6.20;99.90
73277;DHT22;61501;43.316;5.372;2023-02-28T08:47:54;6.20;99.90
73277;DHT22;61501;43.316;5.372;2023-02-28T08:50:21;6.20;99.90
73277;DHT22;61501;43.316;5.372;2023-02-28T08:52:47;6.30;99.90
73277;DHT22;61501;43.316;5.372;2023-02-28T08:55:13;6.40;99.90
73277;DHT22;61501;43.316;5.372;2023-02-28T08:57:38;6.40;99.90
73277;DHT22;61501;43.316;5.372;2023-02-28T09:00:05;6.40;99.90
73277;DHT22;61501;43.316;5.372;2023-02-28T09:02:31;6.40;99.90
73277;DHT22;61501;43.316;5.372;2023-02-28T09:04:57;6.40;99.90
73277;DHT22;61501;43.316;5.372;2023-02-28T09:07:24;6.40;99.90
73277;DHT22;61501;43.316;5.372;2023-02-28T09:09:49;6.30;99.90
73277;DHT22;61501;43.316;5.372;2023-02-28T09:12:26;6.20;99.90
73277;DHT22;61501;43.316;5.372;2023-02-28T09:14:52;6.20;99.90
73277;DHT22;61501;43.316;5.372;2023-02-28T09:17:18;6.20;99.90
73277;DHT22;61501;43.316;5.372;2023-02-28T09:19:44;6.10;99.90
73277;DHT22;61501;43.316;5.372;2023-02-28T09:22:10;6.10;99.90
73277;DHT22;61501;43.316;5.372;2023-02-28T09:24:37;6.10;99.90
73277;DHT22;61501;43.316;5.372;2023-02-28T09:27:03;6.10;99.90
73277;DHT22;61501;43.316;5.372;2023-02-28T09:29:30;6.10;99.90
73277;DHT22;61501;43.316;5.372;2023-02-28T09:31:55;6.10;99.90
73277;DHT22;61501;43.316;5.372;2023-02-28T09:34:27;6.20;99.90
73277;DHT22;61501;43.316;5.372;2023-02-28T09:36:52;6.20;99.90
73277;DHT22;61501;43.316;5.372;2023-02-28T09:39:21;6.10;99.90
73277;DHT22;61501;43.316;5.372;2023-02-28T09:41:50;6.20;99.90
73277;DHT22;61501;43.316;5.372;2023-02-28T09:44:22;6.20;99.90
73277;DHT22;61501;43.316;5.372;2023-02-28T09:46:55;6.20;99.90
73277;DHT22;61501;43.316;5.372;2023-02-28T09:49:39;6.20;99.90
73277;DHT22;61501;43.316;5.372;2023-02-28T09:52:12;6.20;99.90
73277;DHT22;61501;43.316;5.372;2023-02-28T09:54:39;6.30;99.90
73277;DHT22;61501;43.316;5.372;2023-02-28T09:57:07;6.20;99.90
73277;DHT22;61501;43.316;5.372;2023-02-28T10:02:47;6.10;99.90
73277;DHT22;61501;43.316;5.372;2023-02-28T10:05:21;6.20;99.90
73277;DHT22;61501;43.316;5.372;2023-02-28T10:13:01;6.20;99.90
73277;DHT22;61501;43.316;5.372;2023-02-28T10:15:30;6.20;99.90
73277;DHT22;61501;43.316;5.372;2023-02-28T10:18:06;6.20;99.90
73277;DHT22;61501;43.316;5.372;2023-02-28T10:20:38;6.20;99.90
73277;DHT22;61501;43.316;5.372;2023-02-28T10:23:27;6.30;99.90
73277;DHT22;61501;43.316;5.372;2023-02-28T10:26:14;6.40;99.90
73277;DHT22;61501;43.316;5.372;2023-02-28T10:28:44;6.30;99.90
73277;DHT22;61501;43.316;5.372;2023-02-28T10:31:19;6.40;99.90
73277;DHT22;61501;43.316;5.372;2023-02-28T10:33:45;6.40;99.90
73277;DHT22;61501;43.316;5.372;2023-02-28T10:36:17;6.40;99.90
73277;DHT22;61501;43.316;5.372;2023-02-28T10:38:44;6.40;99.90
73277;DHT22;61501;43.316;5.372;2023-02-28T10:41:12;6.40;99.90
73277;DHT22;61501;43.316;5.372;2023-02-28T10:43:39;6.50;99.90
73277;DHT22;61501;43.316;5.372;2023-02-28T10:51:13;6.70;99.90
73277;DHT22;61501;43.316;5.372;2023-02-28T10:53:55;6.80;99.90
73277;DHT22;61501;43.316;5.372;2023-02-28T10:56:22;6.90;99.90
73277;DHT22;61501;43.316;5.372;2023-02-28T11:01:46;6.90;99.90
73277;DHT22;61501;43.316;5.372;2023-02-28T11:07:17;7.10;99.90
73277;DHT22;61501;43.316;5.372;2023-02-28T11:09:49;7.10;99.90
73277;DHT22;61501;43.316;5.372;2023-02-28T11:12:41;7.10;99.90
73277;DHT22;61501;43.316;5.372;2023-02-28T11:15:21;7.20;99.90
73277;DHT22;61501;43.316;5.372;2023-02-28T11:20:30;7.40;99.90
73277;DHT22;61501;43.316;5.372;2023-02-28T11:22:58;7.40;99.90
73277;DHT22;61501;43.316;5.372;2023-02-28T11:25:32;7.60;99.90
73277;DHT22;61501;43.316;5.372;2023-02-28T11:28:00;7.80;99.90
73277;DHT22;61501;43.316;5.372;2023-02-28T11:30:31;7.80;99.90
73277;DHT22;61501;43.316;5.372;2023-02-28T11:32:57;8.10;99.90
73277;DHT22;61501;43.316;5.372;2023-02-28T11:35:36;8.10;99.90
73277;DHT22;61501;43.316;5.372;2023-02-28T11:38:02;8.20;99.90
73277;DHT22;61501;43.316;5.372;2023-02-28T11:40:46;8.00;99.90
73277;DHT22;61501;43.316;5.372;2023-02-28T11:48:38;7.90;99.90
73277;DHT22;61501;43.316;5.372;2023-02-28T11:56:33;8.10;99.40
73277;DHT22;61501;43.316;5.372;2023-02-28T12:02:04;8.20;97.50
73277;DHT22;61501;43.316;5.372;2023-02-28T12:10:30;8.10;97.40
73277;DHT22;61501;43.316;5.372;2023-02-28T12:26:41;8.40;94.90
73277;DHT22;61501;43.316;5.372;2023-02-28T12:29:43;8.10;94.20
73277;DHT22;61501;43.316;5.372;2023-02-28T12:37:46;7.90;93.90
73277;DHT22;61501;43.316;5.372;2023-02-28T12:40:23;7.90;93.20
73277;DHT22;61501;43.316;5.372;2023-02-28T12:42:51;8.00;92.80
73277;DHT22;61501;43.316;5.372;2023-02-28T12:45:26;8.10;93.00
73277;DHT22;61501;43.316;5.372;2023-02-28T12:47:59;8.10;92.70
73277;DHT22;61501;43.316;5.372;2023-02-28T12:50:26;8.20;92.50
73277;DHT22;61501;43.316;5.372;2023-02-28T12:55:43;8.50;92.60
73277;DHT22;61501;43.316;5.372;2023-02-28T13:06:32;7.90;91.50
73277;DHT22;61501;43.316;5.372;2023-02-28T13:09:05;8.10;91.70
73277;DHT22;61501;43.316;5.372;2023-02-28T13:11:54;8.10;91.20
73277;DHT22;61501;43.316;5.372;2023-02-28T13:17:23;7.90;90.90
73277;DHT22;61501;43.316;5.372;2023-02-28T13:24:56;7.90;90.60
73277;DHT22;61501;43.316;5.372;2023-02-28T13:29:51;7.80;90.90
73277;DHT22;61501;43.316;5.372;2023-02-28T13:48:04;7.60;90.20
73277;DHT22;61501;43.316;5.372;2023-02-28T13:50:33;7.60;90.50
73277;DHT22;61501;43.316;5.372;2023-02-28T13:53:24;7.70;90.40
73277;DHT22;61501;43.316;5.372;2023-02-28T14:02:03;7.60;90.50
73277;DHT22;61501;43.316;5.372;2023-02-28T14:05:21;7.50;90.20
73277;DHT22;61501;43.316;5.372;2023-02-28T14:07:26;7.50;90.20
73277;DHT22;61501;43.316;5.372;2023-02-28T14:10:02;7.60;90.20
73277;DHT22;61501;43.316;5.372;2023-02-28T14:18:22;7.80;89.00
73277;DHT22;61501;43.316;5.372;2023-02-28T14:20:58;7.90;87.70
73277;DHT22;61501;43.316;5.372;2023-02-28T14:29:17;7.90;86.70
73277;DHT22;61501;43.316;5.372;2023-02-28T14:32:01;8.10;86.90
73277;DHT22;61501;43.316;5.372;2023-02-28T14:34:35;8.20;85.60
73277;DHT22;61501;43.316;5.372;2023-02-28T14:37:02;8.00;85.00
73277;DHT22;61501;43.316;5.372;2023-02-28T14:39:30;8.10;85.00
73277;DHT22;61501;43.316;5.372;2023-02-28T14:41:56;8.10;83.80
73277;DHT22;61501;43.316;5.372;2023-02-28T14:44:28;7.90;84.20
73277;DHT22;61501;43.316;5.372;2023-02-28T14:46:56;7.90;85.20
73277;DHT22;61501;43.316;5.372;2023-02-28T14:49:31;7.90;85.00
73277;DHT22;61501;43.316;5.372;2023-02-28T14:52:30;8.00;85.40
73277;DHT22;61501;43.316;5.372;2023-02-28T14:54:59;7.90;84.10
73277;DHT22;61501;43.316;5.372;2023-02-28T14:57:33;7.90;84.60
73277;DHT22;61501;43.316;5.372;2023-02-28T15:00:28;8.00;84.60
73277;DHT22;61501;43.316;5.372;2023-02-28T15:02:56;8.00;84.30
73277;DHT22;61501;43.316;5.372;2023-02-28T15:05:31;7.90;85.10
73277;DHT22;61501;43.316;5.372;2023-02-28T15:08:16;7.80;84.50
73277;DHT22;61501;43.316;5.372;2023-02-28T15:10:51;7.70;83.90
73277;DHT22;61501;43.316;5.372;2023-02-28T15:13:19;7.60;85.10
73277;DHT22;61501;43.316;5.372;2023-02-28T15:15:56;7.70;83.90
73277;DHT22;61501;43.316;5.372;2023-02-28T15:21:12;7.70;84.60
73277;DHT22;61501;43.316;5.372;2023-02-28T15:23:41;7.70;83.90
73277;DHT22;61501;43.316;5.372;2023-02-28T15:26:13;7.70;83.10
73277;DHT22;61501;43.316;5.372;2023-02-28T15:28:41;7.70;83.10
73277;DHT22;61501;43.316;5.372;2023-02-28T15:31:23;7.70;82.20
73277;DHT22;61501;43.316;5.372;2023-02-28T15:34:02;7.60;82.70
73277;DHT22;61501;43.316;5.372;2023-02-28T15:36:33;7.70;82.90
73277;DHT22;61501;43.316;5.372;2023-02-28T15:39:16;7.60;81.80
73277;DHT22;61501;43.316;5.372;2023-02-28T15:41:43;7.60;81.60
73277;DHT22;61501;43.316;5.372;2023-02-28T15:46:56;7.60;83.10
73277;DHT22;61501;43.316;5.372;2023-02-28T15:49:22;7.50;81.70
73277;DHT22;61501;43.316;5.372;2023-02-28T15:51:50;7.50;83.40
73277;DHT22;61501;43.316;5.372;2023-02-28T15:54:28;7.60;83.80
73277;DHT22;61501;43.316;5.372;2023-02-28T15:57:03;7.60;83.20
73277;DHT22;61501;43.316;5.372;2023-02-28T15:59:31;7.60;83.20
73277;DHT22;61501;43.316;5.372;2023-02-28T16:02:15;7.60;83.70
73277;DHT22;61501;43.316;5.372;2023-02-28T16:07:35;7.60;84.00
73277;DHT22;61501;43.316;5.372;2023-02-28T16:10:01;7.60;82.80
73277;DHT22;61501;43.316;5.372;2023-02-28T16:12:29;7.50;83.30
73277;DHT22;61501;43.316;5.372;2023-02-28T16:14:57;7.50;82.80
73277;DHT22;61501;43.316;5.372;2023-02-28T16:17:29;7.50;82.80
73277;DHT22;61501;43.316;5.372;2023-02-28T16:19:56;7.50;82.60
73277;DHT22;61501;43.316;5.372;2023-02-28T16:22:23;7.40;83.40
73277;DHT22;61501;43.316;5.372;2023-02-28T16:24:49;7.50;83.40
73277;DHT22;61501;43.316;5.372;2023-02-28T16:27:36;7.50;83.50
73277;DHT22;61501;43.316;5.372;2023-02-28T16:30:04;7.40;82.40
73277;DHT22;61501;43.316;5.372;2023-02-28T16:32:33;7.40;83.20
73277;DHT22;61501;43.316;5.372;2023-02-28T16:35:00;7.40;82.60
73277;DHT22;61501;43.316;5.372;2023-02-28T16:37:27;7.40;82.90
73277;DHT22;61501;43.316;5.372;2023-02-28T16:39:52;7.40;82.60
73277;DHT22;61501;43.316;5.372;2023-02-28T16:42:26;7.40;82.50
73277;DHT22;61501;43.316;5.372;2023-02-28T16:44:54;7.30;82.40
73277;DHT22;61501;43.316;5.372;2023-02-28T16:47:20;7.30;83.30
73277;DHT22;61501;43.316;5.372;2023-02-28T16:49:46;7.30;83.80
73277;DHT22;61501;43.316;5.372;2023-02-28T16:52:13;7.30;84.60
73277;DHT22;61501;43.316;5.372;2023-02-28T16:54:40;7.30;84.30
73277;DHT22;61501;43.316;5.372;2023-02-28T16:57:25;7.30;84.00
73277;DHT22;61501;43.316;5.372;2023-02-28T16:59:50;7.30;84.20
73277;DHT22;61501;43.316;5.372;2023-02-28T17:02:17;7.30;84.60
73277;DHT22;61501;43.316;5.372;2023-02-28T17:04:44;7.40;85.00
73277;DHT22;61501;43.316;5.372;2023-02-28T17:07:15;7.40;84.10
73277;DHT22;61501;43.316;5.372;2023-02-28T17:09:42;7.30;83.60
73277;DHT22;61501;43.316;5.372;2023-02-28T17:12:08;7.30;84.50
73277;DHT22;61501;43.316;5.372;2023-02-28T17:14:35;7.30;84.40
73277;DHT22;61501;43.316;5.372;2023-02-28T17:17:01;7.30;84.40
73277;DHT22;61501;43.316;5.372;2023-02-28T17:19:26;7.30;85.70
73277;DHT22;61501;43.316;5.372;2023-02-28T17:21:53;7.30;85.00
73277;DHT22;61501;43.316;5.372;2023-02-28T17:24:19;7.20;85.40
73277;DHT22;61501;43.316;5.372;2023-02-28T17:26:45;7.20;85.90
73277;DHT22;61501;43.316;5.372;2023-02-28T17:29:18;7.20;85.40
73277;DHT22;61501;43.316;5.372;2023-02-28T17:31:45;7.20;85.20
73277;DHT22;61501;43.316;5.372;2023-02-28T17:34:11;7.20;86.40
73277;DHT22;61501;43.316;5.372;2023-02-28T17:36:44;7.20;86.00
73277;DHT22;61501;43.316;5.372;2023-02-28T17:39:12;7.20;85.70
73277;DHT22;61501;43.316;5.372;2023-02-28T17:41:40;7.20;85.20
73277;DHT22;61501;43.316;5.372;2023-02-28T17:44:07;7.20;85.30
73277;DHT22;61501;43.316;5.372;2023-02-28T17:46:33;7.10;85.70
73277;DHT22;61501;43.316;5.372;2023-02-28T17:48:59;7.10;86.30
73277;DHT22;61501;43.316;5.372;2023-02-28T17:51:25;7.10;86.20
73277;DHT22;61501;43.316;5.372;2023-02-28T17:53:51;7.10;85.80
73277;DHT22;61501;43.316;5.372;2023-02-28T17:56:23;7.10;86.00
73277;DHT22;61501;43.316;5.372;2023-02-28T17:58:49;7.10;86.20
73277;DHT22;61501;43.316;5.372;2023-02-28T18:01:16;7.10;86.70
73277;DHT22;61501;43.316;5.372;2023-02-28T18:03:42;7.10;86.70
73277;DHT22;61501;43.316;5.372;2023-02-28T18:06:18;7.20;86.80
73277;DHT22;61501;43.316;5.372;2023-02-28T18:08:44;7.20;87.10
73277;DHT22;61501;43.316;5.372;2023-02-28T18:11:10;7.20;87.30
73277;DHT22;61501;43.316;5.372;2023-02-28T18:13:50;7.20;86.80
73277;DHT22;61501;43.316;5.372;2023-02-28T18:16:17;7.10;86.50
73277;DHT22;61501;43.316;5.372;2023-02-28T18:18:43;7.00;85.80
73277;DHT22;61501;43.316;5.372;2023-02-28T18:21:11;7.00;86.50
73277;DHT22;61501;43.316;5.372;2023-02-28T18:23:37;7.00;86.40
73277;DHT22;61501;43.316;5.372;2023-02-28T18:26:12;6.90;86.40
73277;DHT22;61501;43.316;5.372;2023-02-28T18:31:41;6.90;87.20
73277;DHT22;61501;43.316;5.372;2023-02-28T18:36:56;6.90;87.90
73277;DHT22;61501;43.316;5.372;2023-02-28T18:39:22;6.80;87.30
73277;DHT22;61501;43.316;5.372;2023-02-28T18:41:47;6.80;87.90
73277;DHT22;61501;43.316;5.372;2023-02-28T18:44:13;6.80;87.60